createdAt,value
2024-04-18T00:01:09.575Z,4.765
2024-04-18T00:06:00.313Z,5.901
2024-04-18T00:11:03.103Z,4.982
2024-04-18T00:16:06.843Z,4.712
2024-04-18T00:20:59.640Z,5.294
2024-04-18T00:26:00.826Z,5.146
2024-04-18T00:31:10.715Z,6.97
2024-04-18T00:36:00.390Z,7.293
2024-04-18T00:41:02.435Z,5.694
2024-04-18T00:46:06.038Z,5.213
2024-04-18T00:50:55.991Z,5.564
2024-04-18T00:56:02.096Z,5.857
2024-04-18T01:01:03.426Z,5.164
2024-04-18T01:06:02.800Z,6.253
2024-04-18T01:11:01.624Z,5.405
2024-04-18T01:15:57.860Z,7.562
2024-04-18T01:21:01.545Z,6.637
2024-04-18T01:26:00.781Z,5.651
2024-04-18T01:31:05.387Z,5.477
2024-04-18T01:35:55.761Z,7.308
2024-04-18T01:40:54.764Z,5.41
2024-04-18T01:46:01.597Z,5.661
2024-04-18T01:50:58.868Z,4.755
2024-04-18T01:55:59.149Z,4.803
2024-04-18T02:01:04.801Z,4.726
2024-04-18T02:05:58.455Z,4.688
2024-04-18T02:10:57.791Z,4.866
2024-04-18T02:15:57.230Z,5.93
2024-04-18T02:20:56.882Z,6.358
2024-04-18T02:25:58.092Z,5.857
2024-04-18T02:31:04.908Z,4.024
2024-04-18T02:35:54.822Z,7.288
2024-04-18T02:41:00.938Z,5.776
2024-04-18T02:46:01.256Z,5.699
2024-04-18T02:50:55.791Z,6.68
2024-04-18T02:55:59.417Z,8.038
2024-04-18T03:01:09.015Z,8.135
2024-04-18T03:06:01.278Z,6.647
2024-04-18T03:11:02.075Z,6.648
2024-04-18T03:16:03.534Z,5.738
2024-04-18T03:20:59.722Z,6.807
2024-04-18T03:26:08.806Z,3.373
2024-04-18T03:31:00.710Z,6.984
2024-04-18T03:35:57.452Z,5.94
2024-04-18T03:41:04.307Z,4.785
2024-04-18T03:46:02.255Z,6.759
2024-04-18T03:51:04.165Z,5.338
2024-04-18T03:56:03.151Z,8.097
2024-04-18T04:01:02.731Z,6.816
2024-04-18T04:06:00.400Z,8.752
2024-04-18T04:11:05.516Z,7.225
2024-04-18T04:16:03.149Z,8.28
2024-04-18T04:21:06.868Z,6.277
2024-04-18T04:26:01.588Z,7.827
2024-04-18T04:31:04.683Z,9.555
2024-04-18T04:36:03.977Z,6.657
2024-04-18T04:41:05.576Z,7.793
2024-04-18T04:46:16.892Z,4.337
2024-04-18T04:51:10.066Z,6.503
2024-04-18T04:56:08.533Z,6.026
2024-04-18T05:01:19.673Z,5.901
2024-04-18T05:06:08.302Z,5.814
2024-04-18T05:11:14.621Z,6.955
2024-04-18T05:16:07.101Z,6.946
2024-04-18T05:21:05.576Z,7.909
2024-04-18T05:26:04.036Z,5.627
2024-04-18T05:36:08.230Z,4.832
2024-04-18T05:41:12.037Z,6.152
2024-04-18T05:46:06.557Z,7.326
2024-04-18T05:51:11.112Z,6.195
2024-04-18T05:56:05.534Z,6.214
2024-04-18T06:01:12.121Z,6.305
2024-04-18T06:06:09.312Z,6.912
2024-04-18T06:11:06.785Z,7.496
2024-04-18T06:16:14.110Z,7.004
2024-04-18T06:21:07.862Z,7.875
2024-04-18T06:26:07.654Z,8.207
2024-04-18T06:36:08.020Z,7.023
2024-04-18T06:41:07.627Z,5.805
2024-04-18T06:46:15.390Z,5.945
2024-04-18T06:51:13.653Z,5.684
2024-04-18T06:56:08.885Z,4.279
2024-04-18T07:01:17.598Z,3.455
2024-04-18T07:06:08.835Z,3.904
2024-04-18T07:11:08.455Z,2.96
2024-04-18T07:16:08.357Z,1.853
2024-04-18T07:21:08.507Z,2.368
2024-04-18T07:26:07.787Z,3.542
2024-04-18T07:31:06.251Z,3.768
2024-04-18T07:36:08.814Z,5.135
2024-04-18T07:41:12.258Z,3.86
2024-04-18T07:46:12.204Z,2.733
2024-04-18T07:51:09.534Z,3.249
2024-04-18T07:56:09.851Z,5.367
2024-04-18T08:01:16.554Z,4.688
2024-04-18T08:06:16.268Z,5.011
2024-04-18T08:12:29.617Z,3.59
2024-04-18T08:16:15.633Z,5.507
2024-04-18T08:21:08.476Z,5.973
2024-04-18T08:25:58.996Z,5.222
2024-04-18T08:31:08.811Z,3.658
2024-04-18T08:36:08.879Z,4.915
2024-04-18T08:41:05.598Z,5.825
2024-04-18T08:46:11.537Z,3.888
2024-04-18T08:51:07.943Z,3.633
2024-04-18T08:56:06.989Z,5.372
2024-04-18T09:01:11.383Z,5.121
2024-04-18T09:06:08.970Z,6.729
2024-04-18T09:11:13.008Z,5.367
2024-04-18T09:16:06.502Z,4.236
2024-04-18T09:21:09.255Z,6.893
2024-04-18T09:26:06.614Z,5.569
2024-04-18T09:31:17.108Z,5.618
2024-04-18T09:36:10.983Z,4.015
2024-04-18T09:41:07.491Z,2.936
2024-04-18T09:46:13.551Z,2.748
2024-04-18T09:51:04.796Z,3.851
2024-04-18T09:56:06.152Z,4.409
2024-04-18T10:01:12.899Z,2.752
2024-04-18T10:06:04.737Z,3.249
2024-04-18T10:11:07.523Z,3.051
2024-04-18T10:16:08.491Z,2.463
2024-04-18T10:21:04.147Z,3.647
2024-04-18T10:26:06.648Z,3.74
2024-04-18T10:31:06.520Z,3.532
2024-04-18T10:36:07.396Z,4.077
2024-04-18T10:41:05.566Z,1.853
2024-04-18T10:46:04.770Z,5.236
2024-04-18T10:51:08.293Z,2.05
2024-04-18T10:56:10.781Z,1.011
2024-04-18T11:01:13.184Z,2.672
2024-04-18T11:06:05.504Z,2.022
2024-04-18T11:11:04.893Z,2.484
2024-04-18T11:16:10.307Z,2.632
2024-04-18T11:21:03.083Z,1.472
2024-04-18T11:26:07.006Z,1.184
2024-04-18T11:31:06.114Z,2.026
2024-04-18T11:36:04.659Z,2.7
2024-04-18T11:41:02.185Z,3.383
2024-04-18T11:46:08.545Z,1.472
2024-04-18T11:51:06.680Z,2.484
2024-04-18T11:56:12.136Z,2.315
2024-04-18T12:01:06.853Z,3.936
2024-04-18T12:06:06.991Z,2.835
2024-04-18T12:11:04.694Z,5.502
2024-04-18T12:16:05.718Z,4.635
2024-04-18T12:21:08.899Z,4.101
2024-04-18T12:26:07.890Z,1.299
2024-04-18T12:31:13.150Z,1.733
2024-04-18T12:36:06.523Z,1.155
2024-04-18T12:41:09.350Z,3.181
2024-04-18T12:46:28.122Z,1.424
2024-04-18T12:51:05.780Z,1.155
2024-04-18T12:56:00.742Z,0.577
2024-04-18T13:01:17.595Z,1.501
2024-04-18T13:06:05.368Z,2.484
2024-04-18T13:11:05.199Z,1.275
2024-04-18T13:16:13.346Z,0.433
2024-04-18T13:20:59.861Z,1.501
2024-04-18T13:26:06.421Z,0.577
2024-04-18T13:31:12.487Z,1.91
2024-04-18T13:36:04.447Z,1.251
2024-04-18T13:40:58.879Z,1.419
2024-04-18T13:46:07.723Z,1.741
2024-04-18T13:51:02.520Z,1.212
2024-04-18T13:56:04.930Z,0.577
2024-04-18T14:01:08.424Z,0.895
2024-04-18T14:06:05.432Z,1.299
2024-04-18T14:11:03.860Z,2.199
2024-04-18T14:16:04.101Z,2.455
2024-04-18T14:21:02.933Z,0.866
2024-04-18T14:26:05.387Z,1.885
2024-04-18T14:31:06.064Z,1.934
2024-04-18T14:36:07.808Z,1.328
2024-04-18T14:41:14.737Z,1.385
2024-04-18T14:46:06.973Z,0.722
2024-04-18T14:51:08.092Z,2.146
2024-04-18T14:56:03.246Z,0.433
2024-04-18T15:01:06.381Z,2.671
2024-04-18T15:06:06.130Z,1.636
2024-04-18T15:11:06.179Z,1.733
2024-04-18T15:16:11.963Z,2.604
2024-04-18T15:21:05.774Z,2.246
2024-04-18T15:26:05.957Z,3.455
2024-04-18T15:31:12.589Z,3.094
2024-04-18T15:36:07.424Z,3.639
2024-04-18T15:41:06.507Z,2.575
2024-04-18T15:46:12.906Z,2.604
2024-04-18T15:51:09.826Z,2.339
2024-04-18T15:56:06.042Z,2.579
2024-04-18T16:01:10.085Z,2.238
2024-04-18T16:06:05.395Z,2.839
2024-04-18T16:11:02.739Z,2.199
2024-04-18T16:16:11.191Z,2.435
2024-04-18T16:26:02.155Z,1.949
2024-04-18T16:31:10.498Z,2.083
2024-04-18T16:35:59.532Z,2.628
2024-04-18T16:41:03.514Z,2.426
2024-04-18T16:46:06.228Z,2.267
2024-04-18T16:51:03.071Z,2.372
2024-04-18T16:56:09.698Z,2.431
2024-04-18T17:01:20.938Z,3.065
2024-04-18T17:06:06.770Z,7.134
2024-04-18T17:11:06.602Z,5.535
2024-04-18T17:16:05.096Z,4.135
2024-04-18T17:21:02.385Z,2.459
2024-04-18T17:26:05.127Z,4.9
2024-04-18T17:31:05.305Z,5.102
2024-04-18T17:36:04.533Z,2.574
2024-04-18T17:46:18.140Z,6.946
2024-04-18T17:51:05.922Z,3.763
2024-04-18T17:56:02.927Z,2.455
2024-04-18T18:01:11.205Z,7.105
2024-04-18T18:06:02.561Z,4.145
2024-04-18T18:10:59.511Z,3.301
2024-04-18T18:16:00.246Z,5.026
2024-04-18T18:21:02.238Z,3.474
2024-04-18T18:26:01.484Z,4.197
2024-04-18T18:31:16.015Z,5.733
2024-04-18T18:35:59.808Z,2.503
2024-04-18T18:41:02.438Z,5.059
2024-04-18T18:46:14.407Z,2.094
2024-04-18T18:51:06.765Z,2.719
2024-04-18T18:56:03.706Z,4.24
2024-04-18T19:01:09.317Z,4.092
2024-04-18T19:06:00.511Z,2.777
2024-04-18T19:10:53.182Z,5.28
2024-04-18T19:16:01.120Z,6.022
2024-04-18T19:21:01.088Z,5.907
2024-04-18T19:26:00.878Z,6.976
2024-04-18T19:31:10.573Z,3.567
2024-04-18T19:36:01.929Z,3.87
2024-04-18T19:41:00.189Z,2.748
2024-04-18T19:46:10.799Z,2.897
2024-04-18T19:51:02.100Z,2.651
2024-04-18T19:56:01.323Z,2.484
2024-04-18T20:01:17.658Z,3.683
2024-04-18T20:06:01.676Z,3.856
2024-04-18T20:11:04.655Z,3.759
2024-04-18T20:16:15.496Z,3.427
2024-04-18T20:26:01.672Z,4.177
2024-04-18T20:31:09.130Z,3.875
2024-04-18T20:36:02.189Z,2.792
2024-04-18T20:41:01.317Z,3.128
2024-04-18T20:46:06.246Z,3.437
2024-04-18T20:51:02.172Z,6.233
2024-04-18T20:56:00.694Z,4.308
2024-04-18T21:01:10.370Z,3.181
2024-04-18T21:06:01.690Z,3.653
2024-04-18T21:11:01.837Z,4.958
2024-04-18T21:15:59.658Z,3.417
2024-04-18T21:20:54.152Z,4.977
2024-04-18T21:26:00.637Z,4.5
2024-04-18T21:31:01.985Z,3.369
2024-04-18T21:36:00.071Z,5.669
2024-04-18T21:41:03.406Z,5.001
2024-04-18T21:46:00.939Z,4.115
2024-04-18T21:51:00.888Z,1.906
2024-04-18T21:56:03.538Z,2.839
2024-04-18T22:01:20.322Z,2.801
2024-04-18T22:06:08.122Z,4.582
2024-04-18T22:10:58.669Z,3.09
2024-04-18T22:16:23.956Z,4.202
2024-04-18T22:21:01.259Z,4.707
2024-04-18T22:26:02.828Z,4.755
2024-04-18T22:31:04.822Z,4.669
2024-04-18T22:36:01.035Z,3.518
2024-04-18T22:40:56.090Z,5.828
2024-04-18T22:46:05.111Z,4.789
2024-04-18T22:50:55.308Z,4.11
2024-04-18T22:56:00.665Z,3.177
2024-04-18T23:01:06.847Z,3.345
2024-04-18T23:06:02.465Z,3.816
2024-04-18T23:10:59.409Z,3.562
2024-04-18T23:15:58.047Z,3.21
2024-04-18T23:20:50.019Z,2.864
2024-04-18T23:25:54.016Z,3.138
2024-04-18T23:30:57.424Z,2.94
2024-04-18T23:35:54.201Z,3.345
2024-04-18T23:40:51.313Z,3.696
2024-04-18T23:45:59.357Z,2.527
2024-04-18T23:50:56.862Z,5.988
2024-04-18T23:56:00.833Z,3.297
